Time;durP1;ratioP1;P1;durP2;ratioP2;P2;SDS_P1;SDS_P2;PMS_P1;PMS_P2;Temp;Humidity;BMP_temperature;BMP_pressure;BME280_temperature;BME280_humidity;BME280_pressure;Samples;Min_cycle;Max_cycle;Signal;HPM_P1;HPM_P2
2023/02/28 00:02:05;;;;;;;2.90;1.60;;;26.50;64.30;;;;;;5145216;23;20036;-48
2023/02/28 00:04:27;;;;;;;2.78;1.35;;;26.50;64.30;;;;;;5143673;23;20441;-47
2023/02/28 00:06:49;;;;;;;4.70;1.73;;;26.50;64.20;;;;;;5135256;23;20099;-46
2023/02/28 00:09:12;;;;;;;3.47;1.58;;;26.50;64.20;;;;;;5145014;23;20459;-46
2023/02/28 00:11:34;;;;;;;3.50;1.70;;;26.50;64.20;;;;;;5145287;23;20016;-45
2023/02/28 00:13:57;;;;;;;2.58;1.52;;;26.60;64.20;;;;;;5145165;23;20060;-46
2023/02/28 00:16:22;;;;;;;2.78;1.50;;;26.50;64.10;;;;;;5145649;23;20040;-46
2023/02/28 00:18:44;;;;;;;3.10;1.67;;;26.50;64.20;;;;;;5144341;23;20020;-49
2023/02/28 00:21:08;;;;;;;3.78;2.00;;;26.60;64.30;;;;;;5144177;23;20013;-46
2023/02/28 00:23:30;;;;;;;2.00;1.27;;;26.50;64.30;;;;;;5143596;23;20445;-47
2023/02/28 00:25:53;;;;;;;6.10;1.63;;;26.50;64.30;;;;;;5141894;23;20040;-47
2023/02/28 00:28:15;;;;;;;4.22;1.67;;;26.50;64.40;;;;;;5144753;23;20017;-46
2023/02/28 00:30:38;;;;;;;4.70;1.75;;;26.50;64.30;;;;;;5131414;23;20016;-47
2023/02/28 00:33:00;;;;;;;4.65;2.08;;;26.60;64.60;;;;;;5143535;23;20414;-45
2023/02/28 00:35:22;;;;;;;10.27;2.17;;;26.50;64.50;;;;;;5144379;23;20035;-47
2023/02/28 00:37:45;;;;;;;5.22;1.73;;;26.50;64.80;;;;;;5143245;23;20092;-48
2023/02/28 00:40:09;;;;;;;8.73;2.30;;;26.50;64.80;;;;;;5139814;23;20018;-47
2023/02/28 00:42:32;;;;;;;2.53;1.70;;;26.50;64.90;;;;;;5141247;23;20024;-47
2023/02/28 00:44:54;;;;;;;3.43;1.60;;;26.50;65.00;;;;;;5134796;23;20021;-45
2023/02/28 00:47:17;;;;;;;3.70;1.95;;;26.50;65.00;;;;;;5142895;23;20017;-47
2023/02/28 00:49:39;;;;;;;4.70;1.80;;;26.50;65.00;;;;;;5142273;23;20063;-44
2023/02/28 00:52:02;;;;;;;4.70;1.63;;;26.50;65.00;;;;;;5135732;23;20013;-45
2023/02/28 00:54:24;;;;;;;3.42;1.38;;;26.50;65.10;;;;;;5144469;23;20186;-47
2023/02/28 00:56:47;;;;;;;5.20;1.40;;;26.50;65.10;;;;;;5145011;23;20070;-46
2023/02/28 00:59:10;;;;;;;1.63;1.13;;;26.60;65.10;;;;;;5143892;23;20508;-46
2023/02/28 01:01:33;;;;;;;3.80;1.25;;;26.60;65.10;;;;;;5134748;23;20012;-47
2023/02/28 01:03:55;;;;;;;4.03;1.40;;;26.60;65.10;;;;;;5133829;23;20095;-45
2023/02/28 01:06:18;;;;;;;3.67;1.60;;;26.60;65.10;;;;;;5144980;23;20016;-47
2023/02/28 01:08:40;;;;;;;2.25;1.13;;;26.60;65.00;;;;;;5144336;23;20363;-44
2023/02/28 01:11:11;;;;;;;3.00;1.52;;;26.60;64.90;;;;;;5145419;23;20012;-49
2023/02/28 01:13:33;;;;;;;2.17;1.10;;;26.60;64.90;;;;;;5141817;23;20060;-48
2023/02/28 01:15:56;;;;;;;3.95;1.35;;;26.60;64.90;;;;;;5143754;23;20019;-47
2023/02/28 01:18:20;;;;;;;3.13;1.65;;;26.60;64.70;;;;;;5143685;23;20081;-46
2023/02/28 01:20:42;;;;;;;;;;;26.60;64.60;;;;;;5136767;23;20016;-48
2023/02/28 01:23:05;;;;;;;4.05;1.45;;;26.70;64.60;;;;;;5143240;23;19911;-45
2023/02/28 01:25:27;;;;;;;4.90;1.50;;;26.60;64.50;;;;;;5142985;23;20294;-49
2023/02/28 01:27:49;;;;;;;1.95;1.20;;;26.70;64.60;;;;;;5141539;23;20091;-44
2023/02/28 01:30:12;;;;;;;6.07;1.40;;;26.70;64.60;;;;;;5143226;23;20123;-46
2023/02/28 01:32:35;;;;;;;5.10;1.60;;;26.70;64.30;;;;;;5140741;23;20403;-49
2023/02/28 01:34:57;;;;;;;2.90;1.58;;;26.70;64.20;;;;;;5141248;23;20456;-48
2023/02/28 01:37:20;;;;;;;5.50;1.95;;;26.70;64.10;;;;;;5140505;23;20017;-44
2023/02/28 01:39:42;;;;;;;5.03;1.55;;;26.80;64.00;;;;;;5142920;23;20017;-46
2023/02/28 01:42:04;;;;;;;5.18;2.45;;;26.80;63.80;;;;;;5142834;23;20513;-47
2023/02/28 01:44:54;;;;;;;5.75;1.63;;;26.80;63.80;;;;;;5141734;23;20012;-47
2023/02/28 01:47:16;;;;;;;4.97;1.95;;;26.90;63.90;;;;;;5142497;23;20092;-46
2023/02/28 01:49:39;;;;;;;2.55;1.70;;;26.90;63.30;;;;;;5142257;23;20012;-44
2023/02/28 01:52:02;;;;;;;3.80;1.80;;;26.90;63.50;;;;;;5143025;23;20486;-47
2023/02/28 01:54:33;;;;;;;3.07;1.80;;;26.90;63.50;;;;;;5142927;23;20455;-47
2023/02/28 01:57:05;;;;;;;3.88;1.67;;;27.00;63.70;;;;;;5143694;23;20786;-49
2023/02/28 01:59:40;;;;;;;2.42;1.17;;;27.00;63.60;;;;;;5144310;23;20413;-49
2023/02/28 02:02:03;;;;;;;4.28;1.80;;;27.00;63.50;;;;;;5135431;23;20386;-46
2023/02/28 02:04:31;;;;;;;3.67;1.73;;;27.00;63.50;;;;;;5145467;22;20443;-49
2023/02/28 02:06:54;;;;;;;4.45;2.00;;;27.00;63.40;;;;;;5141051;23;20020;-49
2023/02/28 02:09:16;;;;;;;2.30;1.50;;;27.00;63.50;;;;;;5143394;23;20013;-47
2023/02/28 02:11:42;;;;;;;3.60;1.40;;;27.10;63.60;;;;;;5143042;23;20016;-51
2023/02/28 02:14:37;;;;;;;4.25;1.60;;;27.10;63.50;;;;;;5142845;23;20040;-45
2023/02/28 02:17:15;;;;;;;4.30;1.35;;;27.10;63.50;;;;;;5138150;23;20024;-48
2023/02/28 02:19:55;;;;;;;2.72;1.20;;;27.10;63.40;;;;;;5142093;23;20021;-48
2023/02/28 02:22:54;;;;;;;3.13;1.70;;;27.20;63.40;;;;;;5141597;23;20059;-54
2023/02/28 02:25:52;;;;;;;2.97;1.25;;;27.20;63.50;;;;;;5141648;23;20019;-49
2023/02/28 02:28:35;;;;;;;3.78;1.40;;;27.30;63.50;;;;;;5039314;23;20010;-49
2023/02/28 02:31:42;;;;;;;3.40;1.80;;;27.30;63.50;;;;;;5140253;23;20047;-47
2023/02/28 02:34:29;;;;;;;2.03;1.38;;;27.30;63.50;;;;;;5138712;23;20031;-45
2023/02/28 02:37:09;;;;;;;3.08;1.10;;;27.40;63.50;;;;;;5143395;23;20017;-49
2023/02/28 02:39:37;;;;;;;3.25;1.35;;;27.40;63.50;;;;;;5143357;23;20401;-47
2023/02/28 02:42:05;;;;;;;3.88;1.55;;;27.40;63.20;;;;;;5136604;23;20131;-44
2023/02/28 02:44:34;;;;;;;2.65;1.38;;;27.40;63.00;;;;;;5141853;23;20024;-50
2023/02/28 02:47:20;;;;;;;4.35;1.73;;;27.50;63.00;;;;;;5141442;23;20016;-48
2023/02/28 02:49:50;;;;;;;4.07;1.58;;;27.50;62.90;;;;;;5133043;23;20016;-48
2023/02/28 02:52:14;;;;;;;6.68;1.80;;;27.50;63.00;;;;;;5143562;23;20028;-47
2023/02/28 02:54:40;;;;;;;3.10;1.70;;;27.50;62.70;;;;;;5145117;23;20052;-44
2023/02/28 02:57:13;;;;;;;3.58;1.92;;;27.60;62.70;;;;;;5144192;23;20016;-45
2023/02/28 02:59:39;;;;;;;3.17;1.83;;;27.50;62.50;;;;;;5144627;23;20070;-45
2023/02/28 03:02:06;;;;;;;4.25;2.10;;;27.60;62.60;;;;;;5145624;23;20395;-48
2023/02/28 03:04:33;;;;;;;5.72;2.17;;;27.60;62.70;;;;;;5144278;23;20402;-45
2023/02/28 03:06:55;;;;;;;3.15;1.92;;;27.60;62.50;;;;;;5142393;23;20075;-48
2023/02/28 03:09:18;;;;;;;4.22;1.63;;;27.60;62.50;;;;;;5134968;23;20099;-47
2023/02/28 03:11:41;;;;;;;2.78;1.40;;;27.70;62.50;;;;;;5142971;23;20074;-44
2023/02/28 03:14:09;;;;;;;;;;;27.80;62.60;;;;;;5144842;23;20087;-51
2023/02/28 03:16:50;;;;;;;5.55;1.77;;;27.80;62.80;;;;;;5143809;23;19954;-48
2023/02/28 03:19:30;;;;;;;5.35;1.85;;;27.70;60.20;;;;;;5131182;23;20017;-45
2023/02/28 03:22:17;;;;;;;1.85;1.40;;;27.60;58.70;;;;;;5142284;23;20012;-45
2023/02/28 03:24:58;;;;;;;2.60;1.50;;;27.40;59.10;;;;;;5142524;23;20016;-53
2023/02/28 03:27:43;;;;;;;2.65;1.25;;;27.20;57.40;;;;;;5140180;23;20376;-44
2023/02/28 03:30:17;;;;;;;1.33;1.05;;;27.00;58.20;;;;;;5140666;23;20100;-45
2023/02/28 03:33:04;;;;;;;1.30;1.02;;;26.80;56.80;;;;;;5140101;23;20021;-50
2023/02/28 03:35:32;;;;;;;9.40;1.98;;;26.70;57.10;;;;;;5144474;23;20358;-47
2023/02/28 03:38:03;;;;;;;7.43;1.52;;;26.50;56.40;;;;;;5143195;23;20558;-49
2023/02/28 03:40:32;;;;;;;5.80;1.60;;;26.40;56.70;;;;;;5141839;23;20051;-45
2023/02/28 03:43:00;;;;;;;2.90;1.40;;;26.30;56.30;;;;;;5142444;23;20402;-44
2023/02/28 03:45:26;;;;;;;2.83;1.15;;;26.10;56.20;;;;;;5143887;23;20462;-44
2023/02/28 03:48:01;;;;;;;1.35;0.90;;;26.00;56.00;;;;;;5129650;23;20019;-47
2023/02/28 03:50:36;;;;;;;1.65;0.90;;;25.90;56.20;;;;;;5145063;23;20044;-49
2023/02/28 03:53:30;;;;;;;1.23;1.02;;;25.80;56.80;;;;;;5141325;23;20526;-46
2023/02/28 03:55:58;;;;;;;2.10;1.20;;;25.70;57.40;;;;;;5133191;23;20013;-48
2023/02/28 03:58:28;;;;;;;2.97;1.15;;;25.60;56.80;;;;;;5143290;23;20016;-52
2023/02/28 04:01:07;;;;;;;1.88;1.35;;;25.50;56.40;;;;;;5137259;23;20035;-52
2023/02/28 04:03:30;;;;;;;1.65;1.13;;;25.50;56.80;;;;;;5135529;23;20398;-54
2023/02/28 04:05:57;;;;;;;1.98;1.30;;;25.40;55.90;;;;;;5143176;23;20729;-50
2023/02/28 04:08:20;;;;;;;1.55;1.10;;;25.30;56.10;;;;;;5139333;23;20386;-51
2023/02/28 04:10:48;;;;;;;2.75;1.20;;;25.20;57.00;;;;;;5143625;23;20035;-53
2023/02/28 04:13:10;;;;;;;2.28;1.30;;;25.10;56.00;;;;;;5142771;23;20043;-56
2023/02/28 04:15:33;;;;;;;1.60;0.98;;;25.00;56.20;;;;;;5140549;23;20370;-57
2023/02/28 04:17:55;;;;;;;2.13;1.30;;;24.90;56.70;;;;;;5142071;23;20028;-50
2023/02/28 04:20:18;;;;;;;1.73;1.00;;;24.80;56.30;;;;;;5143966;23;20027;-47
2023/02/28 04:22:40;;;;;;;1.42;1.17;;;24.70;56.40;;;;;;5141138;23;20417;-43
2023/02/28 04:25:03;;;;;;;2.30;1.20;;;24.60;57.20;;;;;;5141634;23;20108;-46
2023/02/28 04:27:25;;;;;;;1.83;1.25;;;24.60;57.10;;;;;;5141790;23;20354;-46
2023/02/28 04:29:48;;;;;;;1.42;1.17;;;24.50;57.40;;;;;;5142500;23;20466;-46
2023/02/28 04:32:10;;;;;;;3.83;1.60;;;24.50;56.60;;;;;;5140899;23;20166;-49
2023/02/28 04:34:33;;;;;;;2.00;1.08;;;24.40;56.90;;;;;;5134829;23;20059;-49
2023/02/28 04:36:56;;;;;;;1.80;1.20;;;24.30;57.10;;;;;;5142455;23;20048;-50
2023/02/28 04:39:19;;;;;;;2.00;1.20;;;24.20;57.20;;;;;;5141284;23;20066;-46
2023/02/28 04:41:41;;;;;;;1.42;0.90;;;24.20;56.70;;;;;;5133637;23;20406;-47
2023/02/28 04:44:03;;;;;;;1.88;1.10;;;24.10;57.20;;;;;;5133529;23;20017;-47
2023/02/28 04:46:26;;;;;;;1.73;1.17;;;24.10;57.00;;;;;;5143038;23;20048;-49
2023/02/28 04:48:49;;;;;;;2.00;1.15;;;24.00;56.80;;;;;;5143352;23;20031;-48
2023/02/28 04:51:14;;;;;;;1.05;0.95;;;24.00;57.60;;;;;;5140336;23;20020;-50
2023/02/28 04:53:38;;;;;;;2.03;1.00;;;23.90;56.80;;;;;;5130093;23;20513;-48
2023/02/28 04:56:01;;;;;;;1.45;1.13;;;23.80;56.80;;;;;;5142507;23;20079;-51
2023/02/28 04:58:23;;;;;;;1.42;1.10;;;23.70;57.30;;;;;;5141098;23;20451;-50
2023/02/28 05:00:46;;;;;;;1.92;1.20;;;23.70;57.10;;;;;;5141324;23;20470;-47
2023/02/28 05:03:09;;;;;;;6.63;1.35;;;23.60;56.90;;;;;;5141019;23;20012;-48
2023/02/28 05:05:31;;;;;;;0.85;0.60;;;23.60;57.30;;;;;;5142764;23;20078;-46
2023/02/28 05:07:55;;;;;;;1.55;0.98;;;23.60;56.80;;;;;;5143478;23;20009;-46
2023/02/28 05:10:17;;;;;;;0.93;0.80;;;23.60;57.60;;;;;;5135585;23;20344;-48
2023/02/28 05:12:40;;;;;;;1.67;1.00;;;23.50;56.90;;;;;;5140761;23;20024;-48
2023/02/28 05:15:04;;;;;;;1.77;0.90;;;23.50;57.00;;;;;;5142923;23;20024;-48
2023/02/28 05:17:27;;;;;;;2.03;0.93;;;23.40;56.90;;;;;;5133328;23;20020;-45
2023/02/28 05:19:49;;;;;;;1.02;0.73;;;23.40;57.00;;;;;;5141785;23;20094;-47
2023/02/28 05:22:16;;;;;;;1.27;0.82;;;23.30;57.40;;;;;;5140952;23;20012;-50
2023/02/28 05:24:38;;;;;;;1.52;1.10;;;23.20;57.10;;;;;;5143097;23;20059;-49
2023/02/28 05:27:01;;;;;;;1.33;0.80;;;23.10;57.60;;;;;;5141322;23;20020;-51
2023/02/28 05:29:23;;;;;;;1.25;0.63;;;23.00;57.80;;;;;;5142212;23;20027;-48
2023/02/28 05:31:46;;;;;;;1.35;0.90;;;23.00;57.60;;;;;;5144396;23;20421;-47
2023/02/28 05:34:11;;;;;;;0.70;0.65;;;23.10;58.30;;;;;;5141797;23;20060;-49
2023/02/28 05:36:33;;;;;;;1.05;0.68;;;23.20;58.80;;;;;;5133001;23;20023;-48
2023/02/28 05:38:56;;;;;;;1.73;0.80;;;23.30;59.70;;;;;;5140735;23;20042;-48
2023/02/28 05:41:19;;;;;;;1.17;0.70;;;23.50;59.70;;;;;;5136844;23;20012;-48
2023/02/28 05:43:42;;;;;;;2.08;1.23;;;23.60;60.00;;;;;;5143107;23;20404;-46
2023/02/28 05:46:06;;;;;;;1.50;0.90;;;23.80;60.20;;;;;;5144135;23;20061;-51
2023/02/28 05:48:29;;;;;;;3.88;1.48;;;23.90;60.30;;;;;;5143105;23;20017;-49
2023/02/28 05:50:51;;;;;;;2.83;1.15;;;24.00;61.10;;;;;;5144118;23;20070;-48
2023/02/28 05:53:13;;;;;;;2.33;1.20;;;24.20;60.70;;;;;;5143024;23;20079;-50
2023/02/28 05:55:37;;;;;;;4.43;1.30;;;24.30;60.80;;;;;;5144316;23;20410;-47
2023/02/28 05:57:59;;;;;;;2.58;1.25;;;24.40;60.80;;;;;;5135529;23;20359;-50
2023/02/28 06:00:22;;;;;;;3.78;1.40;;;24.50;60.90;;;;;;5144783;23;20455;-49
2023/02/28 06:02:45;;;;;;;4.72;1.90;;;24.60;61.00;;;;;;5143085;23;20012;-47
2023/02/28 06:05:15;;;;;;;7.57;2.47;;;24.70;61.10;;;;;;5130425;23;20131;-51
2023/02/28 06:07:37;;;;;;;6.32;2.83;;;24.90;62.00;;;;;;5132541;23;20347;-51
2023/02/28 06:09:59;;;;;;;6.75;2.65;;;25.00;62.20;;;;;;5142633;23;20043;-47
2023/02/28 06:12:23;;;;;;;6.47;2.22;;;25.10;62.40;;;;;;5145047;23;20386;-48
2023/02/28 06:14:45;;;;;;;4.90;2.80;;;25.20;62.50;;;;;;5143619;23;20331;-49
2023/02/28 06:17:09;;;;;;;7.72;2.83;;;25.20;62.50;;;;;;5143995;23;20493;-47
2023/02/28 06:19:31;;;;;;;5.75;2.60;;;25.30;62.60;;;;;;5142279;23;20028;-49
2023/02/28 06:21:55;;;;;;;6.32;2.58;;;25.40;62.60;;;;;;5141652;23;20020;-47
2023/02/28 06:24:17;;;;;;;4.38;1.80;;;25.50;62.70;;;;;;5132336;23;20607;-51
2023/02/28 06:26:40;;;;;;;4.43;2.00;;;25.60;62.80;;;;;;5134904;23;20013;-47
2023/02/28 06:29:03;;;;;;;3.95;1.77;;;25.70;62.80;;;;;;5143282;23;20021;-48
2023/02/28 06:31:25;;;;;;;7.68;2.28;;;25.70;62.70;;;;;;5142789;23;20017;-49
2023/02/28 06:33:48;;;;;;;3.47;1.75;;;25.80;62.80;;;;;;5143789;23;20067;-48
2023/02/28 06:36:13;;;;;;;4.82;2.17;;;25.90;62.80;;;;;;5141818;23;20489;-48
2023/02/28 06:38:37;;;;;;;3.55;1.70;;;26.00;62.80;;;;;;5142213;23;20044;-48
2023/02/28 06:41:00;;;;;;;4.38;1.88;;;26.00;63.20;;;;;;5144933;23;20016;-45
2023/02/28 06:43:25;;;;;;;3.13;1.35;;;26.10;62.70;;;;;;5142351;23;20095;-47
2023/02/28 06:45:48;;;;;;;4.22;1.60;;;26.20;62.90;;;;;;5143689;23;20028;-43
2023/02/28 06:48:10;;;;;;;6.60;2.20;;;26.20;63.20;;;;;;5141919;23;20016;-44
2023/02/28 06:50:33;;;;;;;3.33;1.08;;;26.30;63.00;;;;;;5137048;23;20459;-49
2023/02/28 06:52:55;;;;;;;4.25;1.20;;;26.30;63.00;;;;;;5132094;23;20012;-51
2023/02/28 06:55:18;;;;;;;3.70;1.90;;;26.40;63.10;;;;;;5140327;23;20036;-43
2023/02/28 06:57:40;;;;;;;4.03;1.25;;;26.40;63.00;;;;;;5141681;23;20043;-43
2023/02/28 07:00:07;;;;;;;2.50;1.33;;;26.50;63.60;;;;;;5141152;23;20012;-45
2023/02/28 07:02:31;;;;;;;1.80;0.77;;;26.50;63.00;;;;;;5142161;23;20016;-44
2023/02/28 07:04:54;;;;;;;3.42;1.20;;;26.60;63.00;;;;;;5140984;23;20082;-45
2023/02/28 07:07:16;;;;;;;2.63;0.90;;;26.60;63.00;;;;;;5143032;23;20027;-43
2023/02/28 07:09:38;;;;;;;2.35;0.73;;;26.60;63.00;;;;;;5142904;23;20407;-46
2023/02/28 07:12:01;;;;;;;2.65;1.00;;;26.70;63.10;;;;;;5134617;23;20122;-45
2023/02/28 07:14:23;;;;;;;2.28;0.90;;;26.70;63.10;;;;;;5143162;23;20086;-43
2023/02/28 07:16:46;;;;;;;5.85;1.40;;;26.70;63.00;;;;;;5144644;23;20027;-42
2023/02/28 07:19:08;;;;;;;2.08;1.38;;;26.80;63.40;;;;;;5143780;23;20026;-44
2023/02/28 07:21:31;;;;;;;4.63;1.20;;;26.90;63.40;;;;;;5142022;23;20111;-45
2023/02/28 07:23:53;;;;;;;3.72;1.00;;;26.90;63.40;;;;;;5142878;23;20017;-42
2023/02/28 07:26:18;;;;;;;5.45;1.20;;;26.90;63.50;;;;;;5134026;23;20418;-45
2023/02/28 07:28:42;;;;;;;2.28;1.00;;;27.00;63.70;;;;;;5143579;23;20103;-44
2023/02/28 07:31:09;;;;;;;1.65;0.73;;;27.00;63.80;;;;;;5143588;23;20070;-46
2023/02/28 07:33:31;;;;;;;5.88;1.13;;;27.00;63.80;;;;;;5143978;23;20028;-52
2023/02/28 07:36:01;;;;;;;1.30;0.70;;;27.00;63.80;;;;;;5141376;23;20013;-44
2023/02/28 07:38:24;;;;;;;2.70;1.02;;;27.10;63.80;;;;;;5141168;23;20996;-46
2023/02/28 07:40:46;;;;;;;5.90;1.33;;;27.10;63.90;;;;;;5143021;23;20473;-45
2023/02/28 07:43:09;;;;;;;2.45;1.10;;;27.20;64.20;;;;;;5141543;23;20051;-47
2023/02/28 07:45:34;;;;;;;3.95;1.40;;;27.10;59.90;;;;;;5144346;23;20036;-47
2023/02/28 07:47:57;;;;;;;1.75;0.98;;;26.90;58.00;;;;;;5136181;23;20107;-45
2023/02/28 07:50:20;;;;;;;1.63;0.90;;;26.60;56.80;;;;;;5140270;23;20016;-43
2023/02/28 07:52:42;;;;;;;2.25;1.30;;;26.30;55.90;;;;;;5140840;23;20056;-42
2023/02/28 07:55:07;;;;;;;1.70;1.20;;;26.00;55.40;;;;;;5140633;23;20008;-44
2023/02/28 07:57:29;;;;;;;1.33;1.00;;;25.80;55.30;;;;;;5142125;23;20044;-41
2023/02/28 07:59:51;;;;;;;1.63;1.10;;;25.60;54.80;;;;;;5139571;23;20040;-41
2023/02/28 08:02:18;;;;;;;1.98;1.10;;;25.40;54.70;;;;;;5141762;23;20027;-42
2023/02/28 08:04:41;;;;;;;2.42;1.20;;;25.20;54.50;;;;;;5140164;23;20104;-43
2023/02/28 08:07:03;;;;;;;4.95;1.60;;;25.10;55.70;;;;;;5142475;23;20466;-44
2023/02/28 08:09:26;;;;;;;4.45;1.45;;;25.10;58.30;;;;;;5142107;23;20356;-44
2023/02/28 08:11:48;;;;;;;2.80;1.55;;;25.20;59.30;;;;;;5128996;23;20016;-46
2023/02/28 08:14:11;;;;;;;3.40;1.40;;;25.40;60.50;;;;;;5141020;23;20529;-42
2023/02/28 08:16:33;;;;;;;2.78;1.38;;;25.50;61.50;;;;;;5140428;23;20013;-44
2023/02/28 08:18:55;;;;;;;5.60;1.45;;;25.60;62.00;;;;;;5141532;23;20425;-45
2023/02/28 08:21:19;;;;;;;5.32;1.40;;;25.70;62.50;;;;;;5142383;23;20072;-47
2023/02/28 08:23:41;;;;;;;2.90;1.42;;;25.80;62.80;;;;;;5141299;23;20367;-46
2023/02/28 08:26:04;;;;;;;2.65;1.35;;;25.90;63.10;;;;;;5140093;23;20100;-44
2023/02/28 08:28:27;;;;;;;3.33;1.25;;;25.90;63.40;;;;;;5139512;23;20125;-44
2023/02/28 08:30:49;;;;;;;1.92;1.20;;;26.00;63.70;;;;;;5142531;23;20096;-45
2023/02/28 08:33:12;;;;;;;3.13;1.27;;;26.00;64.00;;;;;;5141353;23;20078;-47
2023/02/28 08:35:37;;;;;;;3.83;1.33;;;26.10;64.10;;;;;;5141539;23;20017;-46
2023/02/28 08:37:59;;;;;;;2.78;1.10;;;26.10;64.20;;;;;;5133511;23;20013;-43
2023/02/28 08:40:21;;;;;;;2.55;1.30;;;26.10;64.40;;;;;;5142100;23;20413;-45
2023/02/28 08:42:47;;;;;;;2.60;1.27;;;26.20;64.60;;;;;;5142884;23;20016;-45
2023/02/28 08:45:10;;;;;;;3.72;1.40;;;26.20;64.60;;;;;;5142545;23;20013;-44
2023/02/28 08:47:32;;;;;;;2.72;1.20;;;26.20;64.70;;;;;;5142000;23;20016;-45
2023/02/28 08:49:55;;;;;;;3.22;1.45;;;26.30;64.90;;;;;;5141863;23;20013;-43
2023/02/28 08:52:17;;;;;;;4.43;1.25;;;26.30;65.00;;;;;;5142256;23;20021;-43
2023/02/28 08:54:40;;;;;;;4.55;1.70;;;26.40;65.00;;;;;;5141619;23;20024;-46
2023/02/28 08:57:03;;;;;;;2.85;1.50;;;26.40;65.10;;;;;;5142653;23;20012;-46
2023/02/28 08:59:26;;;;;;;3.95;1.65;;;26.40;65.00;;;;;;5140000;23;20455;-47
2023/02/28 09:01:48;;;;;;;2.92;1.70;;;26.50;65.10;;;;;;5140309;23;20028;-45
2023/02/28 09:04:11;;;;;;;3.65;1.40;;;26.50;65.10;;;;;;5140590;23;20027;-43
2023/02/28 09:06:33;;;;;;;2.40;1.13;;;26.50;65.10;;;;;;5141048;23;20328;-42
2023/02/28 09:09:00;;;;;;;3.85;1.67;;;26.60;65.20;;;;;;5142431;23;20021;-45
2023/02/28 09:11:23;;;;;;;3.40;1.48;;;26.60;65.40;;;;;;5134195;23;20092;-46
2023/02/28 09:13:46;;;;;;;2.75;1.35;;;26.60;65.30;;;;;;5141118;23;20111;-46
2023/02/28 09:16:12;;;;;;;4.18;1.92;;;26.60;65.20;;;;;;5140724;23;20488;-52
2023/02/28 09:18:39;;;;;;;3.08;1.60;;;26.70;65.30;;;;;;5133087;23;20020;-45
2023/02/28 09:21:07;;;;;;;3.22;1.48;;;26.70;65.30;;;;;;5141054;23;20020;-49
2023/02/28 09:23:30;;;;;;;5.28;1.70;;;26.70;65.50;;;;;;5142069;23;20069;-46
2023/02/28 09:25:55;;;;;;;2.75;1.30;;;26.70;65.50;;;;;;5140661;23;20023;-45
2023/02/28 09:28:17;;;;;;;3.50;1.60;;;26.70;65.50;;;;;;5142097;23;20024;-45
2023/02/28 09:30:40;;;;;;;3.13;1.65;;;26.70;65.40;;;;;;5140391;23;20016;-46
2023/02/28 09:33:03;;;;;;;3.70;1.33;;;26.70;65.30;;;;;;5139353;23;20135;-46
2023/02/28 09:35:26;;;;;;;5.97;1.98;;;26.70;65.20;;;;;;5140862;23;20012;-45
2023/02/28 09:37:51;;;;;;;5.32;1.60;;;26.80;65.30;;;;;;5135432;23;20395;-45
2023/02/28 09:40:17;;;;;;;4.97;1.52;;;26.80;65.30;;;;;;5134656;23;20016;-47
2023/02/28 09:42:40;;;;;;;3.45;1.58;;;26.80;65.40;;;;;;5123626;23;20095;-47
2023/02/28 09:45:20;;;;;;;3.72;1.60;;;26.80;65.40;;;;;;5134488;23;20088;-46
2023/02/28 09:47:46;;;;;;;2.75;1.63;;;26.80;65.40;;;;;;5134660;23;20028;-45
2023/02/28 09:50:30;;;;;;;2.53;1.60;;;26.80;65.50;;;;;;5135520;23;20458;-45
2023/02/28 09:52:54;;;;;;;4.28;1.73;;;26.80;65.70;;;;;;5126707;23;20455;-49
2023/02/28 09:55:33;;;;;;;3.20;1.90;;;26.80;65.70;;;;;;5135892;23;20128;-45
2023/02/28 09:57:59;;;;;;;3.53;1.50;;;26.80;65.70;;;;;;5122458;23;20102;-44
2023/02/28 10:00:42;;;;;;;4.07;2.00;;;26.90;65.80;;;;;;5136694;23;20040;-45
2023/02/28 10:03:28;;;;;;;3.58;1.98;;;26.90;65.70;;;;;;5136008;23;20059;-47
2023/02/28 10:05:57;;;;;;;3.70;1.80;;;26.90;65.80;;;;;;5136616;23;20020;-46
2023/02/28 10:08:53;;;;;;;3.17;1.83;;;26.90;65.70;;;;;;5133946;23;20021;-51
2023/02/28 10:11:20;;;;;;;4.57;2.15;;;26.90;65.80;;;;;;5124813;23;20019;-47
2023/02/28 10:14:17;;;;;;;4.15;2.03;;;27.00;65.80;;;;;;5123928;23;20028;-46
2023/02/28 10:16:51;;;;;;;3.40;1.63;;;27.00;65.90;;;;;;5087233;23;20027;-46
2023/02/28 10:19:32;;;;;;;2.60;1.30;;;27.00;65.90;;;;;;5133398;23;20040;-49
2023/02/28 10:22:15;;;;;;;3.33;1.50;;;27.00;66.00;;;;;;5124400;23;20316;-47
2023/02/28 10:24:49;;;;;;;4.70;1.60;;;27.00;66.00;;;;;;5136709;23;20333;-53
2023/02/28 10:27:22;;;;;;;3.58;2.03;;;26.90;66.00;;;;;;5136114;23;20533;-47
2023/02/28 10:29:47;;;;;;;2.63;1.60;;;27.00;66.20;;;;;;5135363;23;20012;-52
2023/02/28 10:32:14;;;;;;;3.78;1.60;;;27.00;66.20;;;;;;5134499;23;20098;-48
2023/02/28 10:34:37;;;;;;;4.07;2.10;;;27.00;66.80;;;;;;5135859;23;20028;-49
2023/02/28 10:37:07;;;;;;;2.83;1.58;;;27.00;66.20;;;;;;5135140;23;20019;-50
2023/02/28 10:39:45;;;;;;;2.40;1.30;;;27.00;66.10;;;;;;5128367;23;20024;-50
2023/02/28 10:42:25;;;;;;;3.33;1.58;;;27.00;66.10;;;;;;5140105;23;20059;-53
2023/02/28 10:44:48;;;;;;;2.40;1.17;;;27.00;66.20;;;;;;5132193;23;20092;-46
2023/02/28 10:47:17;;;;;;;3.30;1.80;;;27.00;66.10;;;;;;5143417;23;20164;-51
2023/02/28 10:49:49;;;;;;;2.55;1.23;;;27.00;66.10;;;;;;5142984;23;20013;-49
2023/02/28 10:52:11;;;;;;;3.63;1.58;;;27.10;66.20;;;;;;5143769;23;20407;-51
2023/02/28 10:54:37;;;;;;;4.03;1.50;;;27.10;66.30;;;;;;5142693;23;20478;-53
2023/02/28 10:57:09;;;;;;;3.22;1.77;;;27.10;66.30;;;;;;5135100;23;20044;-46
2023/02/28 10:59:32;;;;;;;4.65;1.92;;;27.10;66.40;;;;;;5145125;23;20061;-51
2023/02/28 11:01:54;;;;;;;2.42;1.23;;;27.10;66.40;;;;;;5143655;23;20398;-48
2023/02/28 11:04:21;;;;;;;3.75;1.90;;;27.10;66.50;;;;;;5143297;23;20013;-46
2023/02/28 11:06:44;;;;;;;4.90;1.83;;;27.10;66.60;;;;;;5144734;23;20477;-50
2023/02/28 11:09:36;;;;;;;4.65;1.70;;;27.00;66.50;;;;;;5142570;23;20013;-47
2023/02/28 11:11:58;;;;;;;2.20;1.50;;;27.10;66.60;;;;;;5130121;23;20017;-45
2023/02/28 11:14:25;;;;;;;3.63;1.50;;;27.10;66.70;;;;;;5143239;23;20344;-45
2023/02/28 11:16:48;;;;;;;6.18;1.95;;;27.10;66.80;;;;;;5144776;23;20053;-52
2023/02/28 11:19:28;;;;;;;7.22;2.00;;;27.10;66.90;;;;;;5144567;23;20017;-44
2023/02/28 11:22:00;;;;;;;3.85;1.45;;;27.10;66.90;;;;;;5146036;23;20023;-45
2023/02/28 11:24:31;;;;;;;2.97;1.45;;;27.10;66.80;;;;;;5143732;23;20021;-46
2023/02/28 11:26:54;;;;;;;2.38;1.38;;;27.10;66.80;;;;;;5145002;23;20096;-48
2023/02/28 11:29:29;;;;;;;3.58;1.80;;;27.10;66.80;;;;;;5144107;23;20020;-46
2023/02/28 11:32:09;;;;;;;;;;;27.10;66.90;;;;;;5144183;23;20028;-49
2023/02/28 11:34:32;;;;;;;3.22;1.50;;;27.20;66.90;;;;;;5143767;23;19919;-49
2023/02/28 11:36:57;;;;;;;3.38;1.45;;;27.20;67.00;;;;;;5144696;23;20016;-49
2023/02/28 11:39:20;;;;;;;3.53;1.77;;;27.20;67.00;;;;;;5143264;23;20020;-48
2023/02/28 11:42:01;;;;;;;2.88;1.45;;;27.20;67.00;;;;;;5144228;23;20378;-48
2023/02/28 11:44:51;;;;;;;3.08;1.58;;;27.20;67.20;;;;;;5137052;23;20017;-47
2023/02/28 11:47:39;;;;;;;4.38;1.40;;;27.20;67.20;;;;;;5143760;23;20408;-50
2023/02/28 11:50:27;;;;;;;2.55;1.23;;;27.20;67.30;;;;;;5097440;23;20024;-50
2023/02/28 11:52:53;;;;;;;3.40;1.38;;;27.20;67.30;;;;;;5143094;22;20074;-50
2023/02/28 11:55:42;;;;;;;11.73;2.10;;;27.20;67.30;;;;;;5136954;23;20025;-48
2023/02/28 11:58:31;;;;;;;6.13;1.88;;;27.20;67.50;;;;;;5143331;23;20470;-49
2023/02/28 12:01:21;;;;;;;3.65;1.92;;;27.30;67.30;;;;;;5137022;23;20017;-46
2023/02/28 12:04:08;;;;;;;3.72;2.00;;;27.20;67.20;;;;;;5142179;23;20398;-50
2023/02/28 12:07:02;;;;;;;4.40;2.40;;;27.20;67.60;;;;;;5135744;23;20119;-47
2023/02/28 12:09:39;;;;;;;4.75;1.67;;;27.20;67.90;;;;;;5136082;23;20027;-50
2023/02/28 12:12:22;;;;;;;4.57;1.88;;;27.20;67.90;;;;;;5143557;23;20071;-47
2023/02/28 12:14:50;;;;;;;5.43;1.77;;;27.20;67.90;;;;;;5142525;23;20016;-46
2023/02/28 12:17:17;;;;;;;4.63;1.92;;;27.30;67.90;;;;;;5142525;23;20079;-46
2023/02/28 12:19:46;;;;;;;3.95;1.70;;;27.30;67.90;;;;;;5142967;23;20013;-49
2023/02/28 12:22:26;;;;;;;4.00;1.98;;;27.30;67.90;;;;;;5144940;23;20120;-53
2023/02/28 12:24:59;;;;;;;3.90;1.60;;;27.30;68.00;;;;;;5143254;23;20379;-52
2023/02/28 12:27:27;;;;;;;4.60;1.63;;;27.30;68.60;;;;;;5142693;23;20023;-49
2023/02/28 12:30:04;;;;;;;3.28;1.50;;;27.40;68.00;;;;;;5142872;23;20023;-50
2023/02/28 12:32:35;;;;;;;3.30;1.30;;;27.40;67.90;;;;;;5142990;23;20012;-47
2023/02/28 12:35:09;;;;;;;2.70;1.20;;;27.40;67.90;;;;;;5142450;23;20051;-48
2023/02/28 12:37:43;;;;;;;3.13;1.60;;;27.40;67.90;;;;;;5142724;23;20013;-49
2023/02/28 12:40:15;;;;;;;2.42;1.80;;;27.40;68.00;;;;;;5144215;23;20374;-48
2023/02/28 12:42:42;;;;;;;4.57;1.52;;;27.40;68.00;;;;;;5143078;23;20490;-45
2023/02/28 12:45:23;;;;;;;3.47;1.50;;;27.40;67.90;;;;;;5132091;23;20016;-50
2023/02/28 12:47:50;;;;;;;3.28;1.40;;;27.40;67.80;;;;;;5144955;22;20016;-47
2023/02/28 12:50:13;;;;;;;1.80;1.30;;;27.40;67.80;;;;;;5144610;23;20083;-46